Terminal Aerodrome Forecast
Issued by NWS Grand Forks, ND

Home | Current Version | Previous Version | Text Only | Print | Product List | Glossary Off
Versions: 1 2 3 4 5 6 7 8 9 10 11 12 13 14 15

254
FTUS43 KFGF 242325
TAFFAR
TAF
KFAR 242325Z 2500/2524 13014G22KT P6SM -TSRA SCT050CB OVC200
     FM250100 16013KT P6SM VCTS BKN040CB
     FM250400 17008KT P6SM SCT100
     FM251300 22013KT P6SM BKN050
     FM251600 28018KT P6SM OVC015
     FM252200 31022G31KT P6SM OVC035=

USA.gov is the U.S. government's official web portal to all federal, state and local government web resources and services.